createdAt,value
2022-12-19T00:00:36.982Z,14.10
2022-12-19T00:03:05.321Z,14.27
2022-12-19T00:05:37.832Z,13.50
2022-12-19T00:08:17.056Z,15.33
2022-12-19T00:10:56.572Z,14.00
2022-12-19T00:13:24.966Z,15.47
2022-12-19T00:15:53.425Z,14.07
2022-12-19T00:18:21.570Z,15.57
2022-12-19T00:20:56.637Z,15.10
2022-12-19T00:23:24.911Z,15.73
2022-12-19T00:25:54.613Z,15.83
2022-12-19T00:28:23.507Z,16.70
2022-12-19T00:30:51.653Z,15.77
2022-12-19T00:33:24.292Z,16.00
2022-12-19T00:35:52.271Z,16.00
2022-12-19T00:38:20.289Z,16.33
2022-12-19T00:40:48.308Z,17.13
2022-12-19T00:43:17.756Z,16.90
2022-12-19T00:45:45.767Z,16.67
2022-12-19T00:48:13.916Z,17.17
2022-12-19T00:50:44.812Z,15.80
2022-12-19T00:53:14.985Z,17.53
2022-12-19T00:55:42.997Z,18.47
2022-12-19T00:58:11.048Z,17.73
2022-12-19T01:00:42.355Z,16.57
2022-12-19T01:03:11.455Z,19.03
2022-12-19T01:05:42.069Z,18.37
2022-12-19T01:08:10.318Z,18.07
2022-12-19T01:10:38.556Z,18.13
2022-12-19T01:13:07.279Z,17.60
2022-12-19T01:15:35.732Z,18.27
2022-12-19T01:18:07.109Z,17.97
2022-12-19T01:20:35.163Z,17.83
2022-12-19T01:23:05.837Z,18.80
2022-12-19T01:25:34.710Z,17.53
2022-12-19T01:28:06.010Z,18.53
2022-12-19T01:30:34.588Z,17.73
2022-12-19T01:33:08.070Z,18.93
2022-12-19T01:35:37.231Z,18.83
2022-12-19T01:38:08.285Z,18.60
2022-12-19T01:40:37.402Z,18.43
2022-12-19T01:43:06.173Z,18.93
2022-12-19T01:45:37.518Z,19.37
2022-12-19T01:48:17.678Z,18.17
2022-12-19T01:51:01.085Z,18.40
2022-12-19T01:53:34.849Z,17.60
2022-12-19T01:56:09.297Z,19.33
2022-12-19T01:58:38.958Z,18.07
2022-12-19T02:01:07.291Z,19.13
2022-12-19T02:03:38.975Z,18.30
2022-12-19T02:06:12.772Z,18.17
2022-12-19T02:08:47.239Z,18.23
2022-12-19T02:11:15.675Z,15.77
2022-12-19T02:13:44.270Z,19.03
2022-12-19T02:16:30.210Z,19.33
2022-12-19T02:19:19.405Z,17.83
2022-12-19T02:21:54.711Z,18.67
2022-12-19T02:25:05.138Z,18.73
2022-12-19T02:28:02.582Z,18.43
2022-12-19T02:30:45.753Z,18.60
2022-12-19T02:33:20.480Z,16.43
2022-12-19T02:35:53.766Z,18.47
2022-12-19T02:38:30.251Z,19.07
2022-12-19T02:41:02.802Z,18.47
2022-12-19T02:43:36.473Z,17.40
2022-12-19T02:46:08.529Z,18.67
2022-12-19T02:48:37.979Z,19.93
2022-12-19T02:51:06.278Z,17.10
2022-12-19T02:53:35.954Z,17.07
2022-12-19T02:56:26.921Z,17.80
2022-12-19T02:59:09.670Z,18.40
2022-12-19T03:01:46.833Z,18.40
2022-12-19T03:04:22.924Z,18.10
2022-12-19T03:06:55.446Z,18.10
2022-12-19T03:09:32.514Z,17.40
2022-12-19T03:12:06.249Z,18.13
2022-12-19T03:14:36.822Z,17.93
2022-12-19T03:17:08.646Z,17.50
2022-12-19T03:19:39.659Z,17.80
2022-12-19T03:22:08.493Z,16.77
2022-12-19T03:24:36.639Z,16.80
2022-12-19T03:27:10.509Z,18.60
2022-12-19T03:29:43.768Z,18.63
2022-12-19T03:32:15.638Z,17.73
2022-12-19T03:34:48.129Z,18.20
2022-12-19T03:37:19.777Z,18.37
2022-12-19T03:39:51.907Z,19.37
2022-12-19T03:42:39.362Z,18.90
2022-12-19T03:45:08.607Z,18.97
2022-12-19T03:47:41.543Z,18.03
2022-12-19T03:50:10.750Z,18.37
2022-12-19T03:52:46.150Z,19.10
2022-12-19T03:55:18.955Z,19.63
2022-12-19T03:57:54.203Z,18.13
2022-12-19T04:00:24.849Z,19.30
2022-12-19T04:02:57.293Z,19.93
2022-12-19T04:05:27.688Z,20.10
2022-12-19T04:07:59.584Z,20.23
2022-12-19T04:10:29.453Z,19.60
2022-12-19T04:13:02.315Z,21.10
2022-12-19T04:15:38.668Z,21.07
2022-12-19T04:18:11.956Z,20.20
2022-12-19T04:20:43.987Z,19.43
2022-12-19T04:23:17.985Z,18.70
2022-12-19T04:25:49.298Z,20.13
2022-12-19T04:28:23.763Z,20.50
2022-12-19T04:30:52.942Z,20.33
2022-12-19T04:33:22.598Z,21.43
2022-12-19T04:35:50.669Z,20.50
2022-12-19T04:38:18.725Z,20.87
2022-12-19T04:40:49.395Z,18.93
2022-12-19T04:43:17.466Z,19.50
2022-12-19T04:45:45.489Z,20.90
2022-12-19T04:48:14.045Z,20.50
2022-12-19T04:50:43.455Z,19.87
2022-12-19T04:53:11.547Z,20.90
2022-12-19T04:55:40.086Z,20.60
2022-12-19T04:58:08.432Z,21.00
2022-12-19T05:00:36.638Z,20.50
2022-12-19T05:03:04.857Z,20.60
2022-12-19T05:05:32.982Z,20.57
2022-12-19T05:08:02.405Z,20.77
2022-12-19T05:10:30.374Z,20.83
2022-12-19T05:12:58.393Z,20.77
2022-12-19T05:15:26.400Z,19.50
2022-12-19T05:17:54.496Z,21.53
2022-12-19T05:20:22.487Z,21.27
2022-12-19T05:22:50.664Z,20.57
2022-12-19T05:25:20.026Z,21.20
2022-12-19T05:27:48.048Z,21.07
2022-12-19T05:30:16.337Z,21.23
2022-12-19T05:32:44.462Z,22.30
2022-12-19T05:35:12.472Z,21.47
2022-12-19T05:37:40.508Z,21.67
2022-12-19T05:40:09.817Z,20.90
2022-12-19T05:42:39.189Z,21.03
2022-12-19T05:45:08.722Z,23.30
2022-12-19T05:47:38.025Z,21.63
2022-12-19T05:50:06.841Z,21.73
2022-12-19T05:52:34.867Z,21.40
2022-12-19T05:55:03.030Z,19.50
2022-12-19T05:57:30.977Z,22.80
2022-12-19T06:00:00.451Z,21.47
2022-12-19T06:02:28.784Z,22.77
2022-12-19T06:04:56.990Z,21.87
2022-12-19T06:07:24.983Z,21.13
2022-12-19T06:09:53.084Z,22.03
2022-12-19T06:12:21.095Z,19.90
2022-12-19T06:14:49.104Z,21.57
2022-12-19T06:17:18.474Z,20.80
2022-12-19T06:19:46.646Z,22.13
2022-12-19T06:22:14.658Z,21.60
2022-12-19T06:24:42.715Z,21.17
2022-12-19T06:27:10.737Z,22.30
2022-12-19T06:29:38.816Z,21.87
2022-12-19T06:32:07.183Z,22.43
2022-12-19T06:35:03.250Z,21.37
2022-12-19T06:37:26.292Z,22.23
2022-12-19T06:39:54.298Z,23.10
2022-12-19T06:42:23.886Z,22.47
2022-12-19T06:44:52.768Z,23.67
2022-12-19T06:47:21.807Z,21.70
2022-12-19T06:49:51.251Z,20.77
2022-12-19T06:52:19.358Z,23.57
2022-12-19T06:54:47.499Z,21.40
2022-12-19T06:57:15.549Z,19.90
2022-12-19T06:59:43.567Z,22.40
2022-12-19T07:02:22.609Z,20.30
2022-12-19T07:04:56.139Z,21.17
2022-12-19T07:07:24.263Z,19.80
2022-12-19T07:09:52.257Z,20.47
2022-12-19T07:12:20.368Z,19.10
2022-12-19T07:14:53.117Z,20.87
2022-12-19T07:17:23.524Z,19.37
2022-12-19T07:19:58.413Z,19.87
2022-12-19T07:22:30.317Z,21.37
2022-12-19T07:24:59.412Z,21.90
2022-12-19T07:27:35.388Z,19.20
2022-12-19T07:30:05.145Z,21.07
2022-12-19T07:32:33.139Z,21.27
2022-12-19T07:35:05.462Z,20.57
2022-12-19T07:37:33.587Z,19.87
2022-12-19T07:40:01.723Z,21.10
2022-12-19T07:42:32.682Z,20.87
2022-12-19T07:45:01.495Z,19.83
2022-12-19T07:47:29.645Z,19.27
2022-12-19T07:49:57.697Z,20.90
2022-12-19T07:52:27.231Z,20.17
2022-12-19T07:54:55.342Z,18.30
2022-12-19T07:57:23.356Z,18.63
2022-12-19T07:59:51.417Z,19.40
2022-12-19T08:02:19.642Z,18.30
2022-12-19T08:04:47.804Z,19.53
2022-12-19T08:07:15.826Z,19.50
2022-12-19T08:09:45.434Z,18.97
2022-12-19T08:12:13.471Z,20.40
2022-12-19T08:14:41.503Z,19.00
2022-12-19T08:17:24.795Z,17.70
2022-12-19T08:19:53.155Z,17.47
2022-12-19T08:22:21.272Z,18.07
2022-12-19T08:24:50.833Z,19.13
2022-12-19T08:27:18.862Z,17.87
2022-12-19T08:29:47.524Z,17.03
2022-12-19T08:32:20.820Z,16.83
2022-12-19T08:34:50.172Z,17.53
2022-12-19T08:37:21.092Z,16.60
2022-12-19T08:39:50.611Z,16.40
2022-12-19T08:42:18.696Z,15.70
2022-12-19T08:44:46.937Z,16.17
2022-12-19T08:47:15.103Z,15.67
2022-12-19T08:49:43.293Z,14.90
2022-12-19T08:52:11.478Z,16.27
2022-12-19T08:54:39.685Z,12.77
2022-12-19T08:57:09.348Z,11.60
2022-12-19T08:59:37.459Z,9.53
2022-12-19T09:02:06.915Z,0.63
2022-12-19T09:05:46.448Z,1.17
2022-12-19T09:07:23.314Z,0.57
2022-12-19T09:09:51.359Z,0.60
2022-12-19T09:12:21.155Z,1.07
2022-12-19T09:14:49.300Z,1.10
2022-12-19T09:17:17.855Z,1.37
2022-12-19T09:19:47.803Z,0.67
2022-12-19T09:22:16.830Z,1.33
2022-12-19T09:24:44.988Z,1.13
2022-12-19T09:27:14.827Z,1.80
2022-12-19T09:29:44.756Z,1.43
2022-12-19T09:32:12.885Z,1.38
2022-12-19T09:34:40.899Z,0.90
2022-12-19T09:37:17.026Z,0.50
2022-12-19T09:39:46.953Z,0.63
2022-12-19T09:42:48.368Z,0.55
2022-12-19T09:45:32.953Z,0.33
2022-12-19T09:48:02.711Z,0.70
2022-12-19T09:50:37.029Z,0.90
2022-12-19T09:53:09.139Z,0.70
2022-12-19T09:55:40.692Z,0.57
2022-12-19T09:58:15.414Z,1.00
2022-12-19T10:00:47.760Z,0.95
2022-12-19T10:03:26.939Z,0.43
2022-12-19T10:07:09.440Z,1.00
2022-12-19T10:09:22.336Z,1.60
2022-12-19T10:12:42.398Z,0.10
2022-12-19T10:14:54.368Z,0.70
2022-12-19T10:17:31.348Z,0.95
2022-12-19T10:20:13.462Z,1.52
2022-12-19T10:22:48.213Z,0.85
2022-12-19T10:25:30.277Z,1.08
2022-12-19T10:28:07.301Z,1.80
2022-12-19T10:30:39.737Z,1.42
2022-12-19T10:33:21.101Z,1.08
2022-12-19T10:35:54.896Z,1.02
2022-12-19T10:38:30.177Z,0.50
2022-12-19T10:41:18.725Z,1.77
2022-12-19T10:43:53.450Z,1.17
2022-12-19T10:46:29.951Z,1.45
2022-12-19T10:48:59.832Z,0.73
2022-12-19T10:51:30.641Z,1.20
2022-12-19T10:54:02.020Z,0.98
2022-12-19T10:56:37.547Z,0.73
2022-12-19T10:59:17.497Z,0.40
2022-12-19T11:01:46.754Z,0.70
2022-12-19T11:04:32.876Z,1.00
2022-12-19T11:07:19.649Z,0.95
2022-12-19T11:10:08.836Z,1.40
2022-12-19T11:14:40.673Z,0.52
2022-12-19T11:20:48.571Z,1.08
2022-12-19T11:27:34.426Z,1.20
2022-12-19T11:29:37.680Z,0.68
2022-12-19T11:29:39.847Z,1.45
2022-12-19T11:29:46.779Z,1.05
2022-12-19T11:32:41.456Z,1.58
2022-12-19T11:35:19.915Z,1.08
2022-12-19T11:37:55.730Z,0.57
2022-12-19T11:40:33.897Z,1.00
2022-12-19T11:46:01.279Z,0.52
2022-12-19T11:48:38.461Z,1.27
2022-12-19T11:51:13.729Z,0.85
2022-12-19T11:53:52.080Z,0.65
2022-12-19T11:56:24.329Z,0.73
2022-12-19T11:58:55.868Z,0.95
2022-12-19T12:01:41.229Z,1.17
2022-12-19T12:04:39.111Z,0.73
2022-12-19T12:07:21.782Z,0.40
2022-12-19T12:16:54.395Z,0.57
2022-12-19T12:22:48.707Z,0.40
2022-12-19T12:29:21.004Z,0.55
2022-12-19T12:31:06.392Z,0.95
2022-12-19T12:31:22.343Z,1.40
2022-12-19T12:31:42.785Z,0.60
2022-12-19T12:31:46.050Z,1.77
2022-12-19T12:35:16.181Z,0.77
2022-12-19T12:35:42.532Z,0.60
2022-12-19T12:38:13.649Z,0.88
2022-12-19T12:39:56.642Z,1.00
2022-12-19T12:42:41.675Z,1.00
2022-12-19T12:45:20.635Z,0.90
2022-12-19T12:47:52.116Z,0.63
2022-12-19T12:50:23.770Z,1.25
2022-12-19T12:52:54.888Z,0.65
2022-12-19T12:55:27.648Z,0.88
2022-12-19T12:57:57.183Z,1.35
2022-12-19T13:00:27.994Z,0.43
2022-12-19T13:03:03.723Z,0.68
2022-12-19T13:05:54.259Z,0.77
2022-12-19T13:08:32.248Z,0.77
2022-12-19T13:11:02.614Z,0.43
2022-12-19T13:13:53.601Z,0.55
2022-12-19T13:16:52.981Z,0.50
2022-12-19T13:19:28.477Z,0.68
2022-12-19T13:22:17.703Z,0.95
2022-12-19T13:24:47.689Z,0.93
2022-12-19T13:27:34.700Z,1.08
2022-12-19T13:30:18.783Z,0.60
2022-12-19T13:33:10.178Z,0.98
2022-12-19T13:37:31.363Z,0.70
2022-12-19T13:39:54.030Z,0.60
2022-12-19T13:41:46.466Z,0.40
2022-12-19T13:44:14.897Z,0.73
2022-12-19T13:46:46.751Z,1.05
2022-12-19T13:49:18.987Z,0.95
2022-12-19T13:51:49.361Z,0.50
2022-12-19T13:54:31.999Z,0.43
2022-12-19T13:57:09.163Z,1.20
2022-12-19T13:59:40.887Z,1.65
2022-12-19T14:02:32.850Z,1.00
2022-12-19T14:05:53.282Z,0.50
2022-12-19T14:08:20.051Z,0.47
2022-12-19T14:11:41.106Z,1.15
2022-12-19T14:14:10.724Z,1.23
2022-12-19T14:16:44.608Z,0.77
2022-12-19T14:19:23.154Z,0.57
2022-12-19T14:22:08.004Z,0.40
2022-12-19T14:24:40.286Z,1.13
2022-12-19T14:28:20.450Z,1.20
2022-12-19T14:30:27.277Z,1.23
2022-12-19T14:33:45.282Z,0.90
2022-12-19T14:36:11.519Z,1.08
2022-12-19T14:39:24.456Z,0.98
2022-12-19T14:42:00.897Z,0.63
2022-12-19T14:52:26.184Z,0.93
2022-12-19T14:53:51.637Z,0.85
2022-12-19T14:54:32.371Z,0.60
2022-12-19T14:54:35.867Z,1.02
2022-12-19T14:59:02.907Z,1.00
2022-12-19T15:01:33.142Z,1.23
2022-12-19T15:04:50.818Z,1.00
2022-12-19T15:07:09.247Z,0.85
2022-12-19T15:11:07.923Z,0.75
2022-12-19T15:14:51.989Z,0.50
2022-12-19T15:16:03.757Z,0.43
2022-12-19T15:18:40.807Z,0.32
2022-12-19T15:21:12.529Z,0.70
2022-12-19T15:23:41.089Z,0.90
2022-12-19T15:26:15.166Z,0.30
2022-12-19T15:28:45.189Z,0.47
2022-12-19T15:31:26.774Z,0.47
2022-12-19T15:36:43.331Z,0.65
2022-12-19T15:39:11.380Z,0.68
2022-12-19T15:41:40.759Z,0.70
2022-12-19T15:44:11.143Z,0.25
2022-12-19T15:46:46.440Z,1.10
2022-12-19T15:49:17.635Z,0.35
2022-12-19T15:51:45.990Z,0.75
2022-12-19T15:57:03.727Z,0.90
2022-12-19T15:59:38.005Z,1.00
2022-12-19T16:02:17.013Z,1.20
2022-12-19T16:04:46.552Z,0.63
2022-12-19T16:07:17.290Z,0.40
2022-12-19T16:09:45.608Z,1.83
2022-12-19T16:12:17.835Z,1.05
2022-12-19T16:14:46.987Z,0.80
2022-12-19T16:17:23.936Z,1.50
2022-12-19T16:19:52.565Z,0.60
2022-12-19T16:22:23.115Z,0.40
2022-12-19T16:24:51.544Z,1.10
2022-12-19T16:27:24.747Z,0.40
2022-12-19T16:29:54.008Z,0.65
2022-12-19T16:32:24.583Z,1.30
2022-12-19T16:34:54.392Z,1.20
2022-12-19T16:37:25.840Z,0.20
2022-12-19T16:39:56.926Z,0.52
2022-12-19T16:42:26.361Z,0.73
2022-12-19T16:44:54.561Z,1.63
2022-12-19T16:47:22.979Z,0.65
2022-12-19T16:49:51.188Z,1.08
2022-12-19T16:52:19.271Z,0.30
2022-12-19T16:54:47.300Z,0.95
2022-12-19T16:57:20.746Z,0.20
2022-12-19T16:59:51.597Z,1.08
2022-12-19T17:02:40.406Z,0.32
2022-12-19T17:05:15.165Z,0.80
2022-12-19T17:07:43.489Z,1.17
2022-12-19T17:10:12.188Z,0.30
2022-12-19T17:12:41.272Z,0.95
2022-12-19T17:15:23.760Z,1.77
2022-12-19T17:17:53.681Z,1.02
2022-12-19T17:20:25.169Z,0.90
2022-12-19T17:22:53.223Z,0.68
2022-12-19T17:25:23.811Z,0.57
2022-12-19T17:27:52.716Z,0.88
2022-12-19T17:30:22.831Z,0.38
2022-12-19T17:32:54.207Z,1.40
2022-12-19T17:35:28.115Z,0.65
2022-12-19T17:37:58.345Z,0.93
2022-12-19T17:40:29.539Z,0.40
2022-12-19T17:42:58.802Z,0.95
2022-12-19T17:45:30.195Z,0.82
2022-12-19T17:48:03.297Z,0.57
2022-12-19T17:50:37.410Z,0.95
2022-12-19T17:53:06.351Z,0.68
2022-12-19T17:55:34.555Z,1.85
2022-12-19T17:58:03.181Z,0.90
2022-12-19T18:00:34.515Z,0.60
2022-12-19T18:03:06.259Z,1.17
2022-12-19T18:05:36.936Z,1.13
2022-12-19T18:08:19.351Z,0.30
2022-12-19T18:10:47.672Z,1.13
2022-12-19T18:13:15.975Z,0.95
2022-12-19T18:15:45.823Z,0.95
2022-12-19T18:18:17.131Z,0.57
2022-12-19T18:20:45.739Z,1.25
2022-12-19T18:23:18.658Z,0.88
2022-12-19T18:25:47.465Z,0.73
2022-12-19T18:28:16.055Z,0.75
2022-12-19T18:30:47.145Z,0.63
2022-12-19T18:33:19.353Z,1.02
2022-12-19T18:35:49.561Z,1.42
2022-12-19T18:38:20.051Z,0.35
2022-12-19T18:40:49.382Z,0.90
2022-12-19T18:43:18.087Z,1.00
2022-12-19T18:45:49.663Z,1.15
2022-12-19T18:48:23.739Z,0.38
2022-12-19T18:50:51.914Z,0.57
2022-12-19T18:53:23.177Z,0.75
2022-12-19T18:55:52.842Z,0.98
2022-12-19T18:58:21.549Z,1.35
2022-12-19T19:00:55.601Z,0.77
2022-12-19T19:03:30.229Z,2.03
2022-12-19T19:05:58.655Z,1.27
2022-12-19T19:08:28.776Z,0.60
2022-12-19T19:11:06.557Z,0.68
2022-12-19T19:13:34.619Z,1.27
2022-12-19T19:16:08.116Z,1.10
2022-12-19T19:18:39.086Z,0.80
2022-12-19T19:21:10.847Z,0.47
2022-12-19T19:23:43.058Z,1.05
2022-12-19T19:26:11.085Z,0.77
2022-12-19T19:28:39.420Z,0.75
2022-12-19T19:31:12.175Z,2.08
2022-12-19T19:33:44.803Z,1.13
2022-12-19T19:36:16.886Z,0.75
2022-12-19T19:38:48.622Z,0.43
2022-12-19T19:41:16.948Z,0.55
2022-12-19T19:43:44.982Z,0.63
2022-12-19T19:46:14.463Z,1.02
2022-12-19T19:48:42.782Z,0.40
2022-12-19T19:51:12.132Z,1.02
2022-12-19T19:53:40.324Z,0.68
2022-12-19T19:56:08.938Z,0.73
2022-12-19T19:58:37.032Z,1.17
2022-12-19T20:01:09.220Z,0.85
2022-12-19T20:03:39.866Z,0.57
2022-12-19T20:06:08.533Z,1.10
2022-12-19T20:08:39.818Z,0.22
2022-12-19T20:11:10.691Z,0.70
2022-12-19T20:13:39.570Z,0.93
2022-12-19T20:16:09.729Z,0.52
2022-12-19T20:18:40.025Z,0.28
2022-12-19T20:21:12.613Z,0.70
2022-12-19T20:23:42.736Z,0.30
2022-12-19T20:26:11.749Z,0.22
2022-12-19T20:28:45.965Z,0.43
2022-12-19T20:31:17.057Z,1.33
2022-12-19T20:33:46.778Z,0.45
2022-12-19T20:36:15.851Z,0.30
2022-12-19T20:38:43.985Z,1.02
2022-12-19T20:41:12.069Z,0.47
2022-12-19T20:43:41.376Z,1.23
2022-12-19T20:46:11.556Z,1.20
2022-12-19T20:48:40.024Z,0.28
2022-12-19T20:51:09.990Z,0.68
2022-12-19T20:53:39.421Z,0.30
2022-12-19T20:56:09.244Z,0.30
2022-12-19T20:58:38.971Z,0.75
2022-12-19T21:01:10.221Z,0.95
2022-12-19T21:03:39.400Z,0.50
2022-12-19T21:06:10.433Z,1.00
2022-12-19T21:08:38.972Z,0.73
2022-12-19T21:11:08.308Z,0.52
2022-12-19T21:13:37.194Z,0.30
2022-12-19T21:16:08.895Z,0.10
2022-12-19T21:18:37.892Z,1.00
2022-12-19T21:21:06.305Z,0.75
2022-12-19T21:23:36.214Z,0.65
2022-12-19T21:26:05.488Z,0.40
2022-12-19T21:28:34.198Z,0.50
2022-12-19T21:31:04.155Z,0.22
2022-12-19T21:33:32.503Z,0.85
2022-12-19T21:36:07.006Z,0.52
2022-12-19T21:38:36.820Z,0.50
2022-12-19T21:41:05.922Z,1.20
2022-12-19T21:43:34.530Z,0.70
2022-12-19T21:46:08.514Z,0.60
2022-12-19T21:48:38.509Z,0.10
2022-12-19T21:51:07.327Z,0.65
2022-12-19T21:53:38.094Z,0.73
2022-12-19T21:56:07.723Z,0.20
2022-12-19T21:58:36.137Z,0.28
2022-12-19T22:01:12.064Z,0.20
2022-12-19T22:03:41.455Z,0.77
2022-12-19T22:06:15.880Z,0.10
2022-12-19T22:08:47.847Z,0.63
2022-12-19T22:11:18.280Z,0.68
2022-12-19T22:13:46.721Z,0.98
2022-12-19T22:16:15.743Z,0.43
2022-12-19T22:18:44.146Z,0.57
2022-12-19T22:21:14.009Z,0.20
2022-12-19T22:23:42.263Z,0.50
2022-12-19T22:26:14.849Z,0.55
2022-12-19T22:28:45.342Z,0.73
2022-12-19T22:31:18.434Z,0.13
2022-12-19T22:33:47.156Z,0.20
2022-12-19T22:36:16.312Z,0.55
2022-12-19T22:38:48.527Z,0.57
2022-12-19T22:41:19.413Z,0.55
2022-12-19T22:43:48.014Z,0.30
2022-12-19T22:46:17.735Z,0.35
2022-12-19T22:48:47.187Z,0.40
2022-12-19T22:51:16.106Z,0.55
2022-12-19T22:53:44.236Z,0.20
2022-12-19T22:56:14.580Z,0.35
2022-12-19T22:58:46.228Z,0.15
2022-12-19T23:01:16.355Z,0.28
2022-12-19T23:03:45.308Z,0.30
2022-12-19T23:06:13.761Z,0.35
2022-12-19T23:08:42.367Z,0.93
2022-12-19T23:11:13.341Z,0.20
2022-12-19T23:13:43.366Z,0.30
2022-12-19T23:16:13.248Z,0.20
2022-12-19T23:18:42.162Z,0.52
2022-12-19T23:21:12.103Z,0.25
2022-12-19T23:23:42.589Z,0.20
2022-12-19T23:26:15.879Z,0.30
2022-12-19T23:28:50.547Z,0.30
2022-12-19T23:31:18.703Z,0.22
2022-12-19T23:33:46.820Z,0.98
2022-12-19T23:36:14.888Z,0.45
2022-12-19T23:38:43.470Z,0.63
2022-12-19T23:41:14.056Z,0.50
2022-12-19T23:43:43.024Z,0.10
2022-12-19T23:46:16.136Z,0.77
2022-12-19T23:48:44.301Z,5.20
2022-12-19T23:51:14.166Z,5.90
2022-12-19T23:53:42.559Z,5.18
2022-12-19T23:56:14.002Z,4.72
2022-12-19T23:58:42.325Z,4.43
